Terminal Aerodrome Forecast
Issued by NWS Twin Cities, MN

Home | Current Version | Previous Version | Graphics & Text | Print | Product List | Glossary On
Versions: 1 2 3 4 5 6 7 8 9 10 11 12 13 14 15 16 17 18 19
000
FTUS43 KMPX 291800 CCA
TAFEAU
TAF COR
KEAU 291829Z 2918/3018 31011KT P6SM VCSH SCT050
      TEMPO 2918/2922 6SM -RA SCT025 BKN040
     FM300100 30004KT P6SM SCT080
     FM301500 32006KT P6SM SCT050=

USA.gov is the U.S. government's official web portal to all federal, state and local government web resources and services.